createdAt,value
2022-08-03T00:00:15.785Z,2.39
2022-08-03T00:01:16.194Z,2.16
2022-08-03T00:02:13.694Z,2.43
2022-08-03T00:03:11.314Z,2.65
2022-08-03T00:04:10.016Z,2.24
2022-08-03T00:05:08.557Z,2.07
2022-08-03T00:06:05.937Z,2.32
2022-08-03T00:07:03.316Z,2.31
2022-08-03T00:08:01.118Z,2.21
2022-08-03T00:08:58.893Z,2.39
2022-08-03T00:09:56.231Z,2.35
2022-08-03T00:10:53.596Z,2.51
2022-08-03T00:11:50.950Z,2.40
2022-08-03T00:12:48.721Z,2.55
2022-08-03T00:13:46.113Z,2.24
2022-08-03T00:14:43.511Z,2.57
2022-08-03T00:15:42.886Z,2.41
2022-08-03T00:16:40.206Z,2.34
2022-08-03T00:17:52.431Z,2.33
2022-08-03T00:18:51.521Z,2.28
2022-08-03T00:19:48.872Z,2.30
2022-08-03T00:20:46.406Z,2.58
2022-08-03T00:21:43.737Z,2.62
2022-08-03T00:22:41.318Z,2.42
2022-08-03T00:23:51.385Z,2.43
2022-08-03T00:24:51.784Z,2.22
2022-08-03T00:25:49.163Z,2.32
2022-08-03T00:26:46.520Z,2.60
2022-08-03T00:27:43.857Z,2.55
2022-08-03T00:28:42.030Z,2.54
2022-08-03T00:29:59.383Z,2.26
2022-08-03T00:30:56.808Z,2.39
2022-08-03T00:32:00.507Z,2.55
2022-08-03T00:32:59.085Z,2.64
2022-08-03T00:33:59.306Z,2.20
2022-08-03T00:35:00.537Z,2.44
2022-08-03T00:36:05.937Z,2.09
2022-08-03T00:37:03.360Z,2.31
2022-08-03T00:38:00.774Z,2.40
2022-08-03T00:38:58.168Z,2.49
2022-08-03T00:39:55.528Z,2.38
2022-08-03T00:40:57.259Z,2.62
2022-08-03T00:41:54.642Z,2.40
2022-08-03T00:42:56.198Z,2.51
2022-08-03T00:43:53.587Z,2.37
2022-08-03T00:44:50.938Z,2.40
2022-08-03T00:45:48.439Z,2.39
2022-08-03T00:46:48.414Z,2.23
2022-08-03T00:47:46.062Z,2.35
2022-08-03T00:48:43.440Z,2.35
2022-08-03T00:49:41.528Z,2.30
2022-08-03T00:50:42.857Z,2.28
2022-08-03T00:51:40.206Z,2.51
2022-08-03T00:52:37.578Z,2.61
2022-08-03T00:53:35.834Z,2.37
2022-08-03T00:54:34.316Z,2.59
2022-08-03T00:55:31.787Z,2.61
2022-08-03T00:56:30.297Z,2.72
2022-08-03T00:57:30.279Z,2.31
2022-08-03T00:58:27.954Z,2.49
2022-08-03T00:59:25.373Z,2.47
2022-08-03T01:00:27.005Z,2.43
2022-08-03T01:01:24.512Z,2.34
2022-08-03T01:02:22.008Z,2.49
2022-08-03T01:03:19.446Z,2.47
2022-08-03T01:04:16.868Z,2.54
2022-08-03T01:05:14.433Z,2.49
2022-08-03T01:06:19.092Z,2.56
2022-08-03T01:07:27.659Z,2.04
2022-08-03T01:08:43.589Z,2.44
2022-08-03T01:09:48.384Z,2.72
2022-08-03T01:10:51.752Z,2.69
2022-08-03T01:12:13.108Z,2.56
2022-08-03T01:13:59.085Z,2.33
2022-08-03T01:14:33.110Z,2.26
2022-08-03T01:15:46.789Z,2.40
2022-08-03T01:17:02.452Z,2.30
2022-08-03T01:18:03.930Z,2.78
2022-08-03T01:19:19.661Z,2.40
2022-08-03T01:20:18.604Z,2.20
2022-08-03T01:21:27.060Z,2.63
2022-08-03T01:22:27.240Z,2.24
2022-08-03T01:23:42.710Z,2.50
2022-08-03T01:24:48.847Z,2.47
2022-08-03T01:25:54.187Z,2.45
2022-08-03T01:26:57.837Z,2.56
2022-08-03T01:28:07.266Z,2.08
2022-08-03T01:29:23.135Z,2.54
2022-08-03T01:30:21.768Z,2.62
2022-08-03T01:31:22.625Z,2.38
2022-08-03T01:33:02.485Z,2.47
2022-08-03T01:33:45.192Z,2.60
2022-08-03T01:34:47.781Z,2.34
2022-08-03T01:35:47.541Z,2.60
2022-08-03T01:36:49.165Z,2.32
2022-08-03T01:37:56.779Z,2.28
2022-08-03T01:38:57.755Z,2.66
2022-08-03T01:39:57.876Z,2.53
2022-08-03T01:40:56.759Z,2.50
2022-08-03T01:42:02.355Z,2.44
2022-08-03T01:43:02.421Z,2.62
2022-08-03T01:44:29.459Z,2.52
2022-08-03T01:45:25.031Z,2.41
2022-08-03T01:46:25.738Z,2.76
2022-08-03T01:47:25.598Z,2.60
2022-08-03T01:48:23.102Z,2.40
2022-08-03T01:49:21.449Z,2.83
2022-08-03T01:50:24.918Z,2.48
2022-08-03T01:51:22.648Z,2.75
2022-08-03T01:52:21.670Z,2.74
2022-08-03T01:53:20.488Z,2.43
2022-08-03T01:54:19.859Z,2.56
2022-08-03T01:55:19.861Z,2.53
2022-08-03T01:56:19.934Z,2.87
2022-08-03T01:57:19.409Z,2.76
2022-08-03T01:58:19.518Z,2.74
2022-08-03T01:59:19.456Z,2.95
2022-08-03T02:00:17.628Z,2.68
2022-08-03T02:01:18.935Z,2.63
2022-08-03T02:02:32.083Z,2.69
2022-08-03T02:03:34.095Z,2.68
2022-08-03T02:04:33.057Z,2.85
2022-08-03T02:05:32.221Z,2.52
2022-08-03T02:07:02.835Z,2.64
2022-08-03T02:07:49.902Z,2.65
2022-08-03T02:08:48.875Z,2.65
2022-08-03T02:09:50.191Z,2.81
2022-08-03T02:10:49.482Z,2.59
2022-08-03T02:11:47.456Z,3.08
2022-08-03T02:12:46.304Z,2.52
2022-08-03T02:13:45.464Z,2.55
2022-08-03T02:14:44.632Z,2.68
2022-08-03T02:15:44.754Z,2.64
2022-08-03T02:16:44.049Z,3.10
2022-08-03T02:17:43.957Z,2.94
2022-08-03T02:18:42.376Z,2.58
2022-08-03T02:19:40.896Z,2.46
2022-08-03T02:20:40.309Z,3.09
2022-08-03T02:21:57.023Z,2.54
2022-08-03T02:22:55.557Z,2.97
2022-08-03T02:23:53.338Z,3.00
2022-08-03T02:24:51.337Z,3.02
2022-08-03T02:25:53.133Z,2.68
2022-08-03T02:26:55.495Z,2.59
2022-08-03T02:27:58.307Z,2.69
2022-08-03T02:28:57.246Z,2.94
2022-08-03T02:30:03.737Z,3.07
2022-08-03T02:31:03.278Z,3.22
2022-08-03T02:32:04.424Z,2.73
2022-08-03T02:33:02.397Z,2.64
2022-08-03T02:34:03.026Z,2.81
2022-08-03T02:35:01.297Z,3.12
2022-08-03T02:36:01.039Z,2.89
2022-08-03T02:37:03.095Z,2.93
2022-08-03T02:38:02.498Z,3.13
2022-08-03T02:39:01.041Z,2.67
2022-08-03T02:40:02.511Z,2.68
2022-08-03T02:41:02.180Z,3.09
2022-08-03T02:42:05.496Z,3.00
2022-08-03T02:43:07.623Z,2.79
2022-08-03T02:44:08.642Z,2.99
2022-08-03T02:45:10.439Z,2.94
2022-08-03T02:46:11.699Z,3.34
2022-08-03T02:47:12.524Z,2.96
2022-08-03T02:48:11.815Z,3.19
2022-08-03T02:49:41.037Z,2.93
2022-08-03T02:50:30.424Z,3.53
2022-08-03T02:51:30.756Z,3.27
2022-08-03T02:52:29.821Z,3.13
2022-08-03T02:53:29.533Z,3.35
2022-08-03T02:54:28.404Z,3.42
2022-08-03T02:55:28.050Z,3.38
2022-08-03T02:56:25.753Z,3.64
2022-08-03T02:57:26.011Z,3.56
2022-08-03T02:58:24.778Z,3.31
2022-08-03T02:59:22.512Z,3.60
2022-08-03T03:00:28.435Z,3.76
2022-08-03T03:01:28.695Z,3.90
2022-08-03T03:02:28.241Z,3.67
2022-08-03T03:03:28.925Z,3.57
2022-08-03T03:04:32.938Z,3.57
2022-08-03T03:05:56.009Z,3.22
2022-08-03T03:06:50.479Z,3.46
2022-08-03T03:07:52.881Z,3.82
2022-08-03T03:08:52.516Z,3.24
2022-08-03T03:09:53.456Z,3.24
2022-08-03T03:10:53.246Z,3.79
2022-08-03T03:11:54.008Z,3.54
2022-08-03T03:12:55.265Z,3.33
2022-08-03T03:13:53.782Z,3.31
2022-08-03T03:14:51.172Z,3.72
2022-08-03T03:15:49.853Z,3.61
2022-08-03T03:16:50.704Z,3.25
2022-08-03T03:17:50.407Z,3.32
2022-08-03T03:18:49.884Z,3.30
2022-08-03T03:19:49.926Z,3.29
2022-08-03T03:20:48.053Z,3.34
2022-08-03T03:21:45.850Z,3.21
2022-08-03T03:22:45.314Z,3.50
2022-08-03T03:23:43.532Z,3.73
2022-08-03T03:24:42.799Z,3.30
2022-08-03T03:25:40.905Z,3.06
2022-08-03T03:26:42.384Z,3.43
2022-08-03T03:27:40.678Z,3.08
2022-08-03T03:28:38.281Z,3.28
2022-08-03T03:29:39.387Z,3.17
2022-08-03T03:30:37.040Z,3.41
2022-08-03T03:31:35.354Z,3.11
2022-08-03T03:32:32.900Z,3.46
2022-08-03T03:33:30.474Z,3.68
2022-08-03T03:34:29.611Z,3.30
2022-08-03T03:35:28.275Z,3.51
2022-08-03T03:36:25.678Z,3.05
2022-08-03T03:37:23.062Z,3.42
2022-08-03T03:38:20.932Z,3.44
2022-08-03T03:39:18.315Z,3.28
2022-08-03T03:40:15.848Z,3.09
2022-08-03T03:41:13.204Z,3.00
2022-08-03T03:42:11.016Z,3.42
2022-08-03T03:43:09.853Z,3.24
2022-08-03T03:44:07.440Z,3.10
2022-08-03T03:45:08.695Z,3.60
2022-08-03T03:46:06.332Z,3.43
2022-08-03T03:47:03.707Z,3.13
2022-08-03T03:48:04.942Z,3.33
2022-08-03T03:49:02.386Z,3.51
2022-08-03T03:50:00.275Z,3.43
2022-08-03T03:50:59.270Z,3.34
2022-08-03T03:51:56.725Z,3.51
2022-08-03T03:52:54.095Z,3.25
2022-08-03T03:53:58.460Z,3.38
2022-08-03T03:55:00.684Z,3.38
2022-08-03T03:56:02.099Z,3.56
2022-08-03T03:57:00.277Z,3.38
2022-08-03T03:57:57.588Z,3.42
2022-08-03T03:58:56.370Z,3.45
2022-08-03T03:59:53.714Z,3.45
2022-08-03T04:00:51.266Z,3.08
2022-08-03T04:01:48.927Z,3.65
2022-08-03T04:02:57.084Z,3.68
2022-08-03T04:03:54.540Z,3.95
2022-08-03T04:05:10.325Z,3.70
2022-08-03T04:06:26.152Z,3.99
2022-08-03T04:07:42.936Z,3.71
2022-08-03T04:09:19.107Z,3.64
2022-08-03T04:10:39.359Z,3.76
2022-08-03T04:11:40.394Z,3.78
2022-08-03T04:12:39.925Z,3.82
2022-08-03T04:13:53.454Z,4.13
2022-08-03T04:14:53.729Z,3.95
2022-08-03T04:15:52.546Z,3.89
2022-08-03T04:16:52.247Z,3.65
2022-08-03T04:17:53.154Z,3.71
2022-08-03T04:18:56.513Z,3.57
2022-08-03T04:19:54.839Z,3.84
2022-08-03T04:20:54.497Z,3.83
2022-08-03T04:21:57.005Z,3.60
2022-08-03T04:22:57.340Z,3.52
2022-08-03T04:23:57.483Z,3.50
2022-08-03T04:25:03.460Z,4.11
2022-08-03T04:26:02.828Z,3.82
2022-08-03T04:27:03.506Z,3.84
2022-08-03T04:28:20.984Z,4.00
2022-08-03T04:29:21.219Z,3.91
2022-08-03T04:30:18.970Z,4.29
2022-08-03T04:31:18.026Z,3.62
2022-08-03T04:32:17.111Z,3.85
2022-08-03T04:33:16.828Z,3.84
2022-08-03T04:34:15.651Z,4.29
2022-08-03T04:35:13.094Z,3.76
2022-08-03T04:36:15.946Z,3.88
2022-08-03T04:37:19.038Z,4.01
2022-08-03T04:38:19.331Z,3.64
2022-08-03T04:39:23.947Z,3.98
2022-08-03T04:40:25.294Z,3.59
2022-08-03T04:41:28.030Z,3.85
2022-08-03T04:42:25.897Z,3.77
2022-08-03T04:43:25.799Z,3.69
2022-08-03T04:44:28.469Z,3.58
2022-08-03T04:45:27.521Z,3.47
2022-08-03T04:46:37.739Z,3.54
2022-08-03T04:47:37.643Z,3.52
2022-08-03T04:48:35.552Z,3.87
2022-08-03T04:49:35.084Z,3.43
2022-08-03T04:50:32.696Z,3.24
2022-08-03T04:51:31.263Z,3.54
2022-08-03T04:52:28.778Z,3.59
2022-08-03T04:53:26.224Z,3.58
2022-08-03T04:54:23.615Z,3.67
2022-08-03T04:55:27.893Z,3.65
2022-08-03T04:56:25.244Z,4.08
2022-08-03T04:57:23.590Z,3.75
2022-08-03T04:58:21.077Z,3.93
2022-08-03T04:59:18.429Z,3.97
2022-08-03T05:00:16.089Z,4.21
2022-08-03T05:01:13.512Z,4.09
2022-08-03T05:02:11.031Z,3.95
2022-08-03T05:03:20.263Z,4.18
2022-08-03T05:04:23.078Z,4.44
2022-08-03T05:05:20.466Z,4.01
2022-08-03T05:06:20.466Z,4.38
2022-08-03T05:07:24.964Z,3.86
2022-08-03T05:08:28.028Z,4.27
2022-08-03T05:09:39.549Z,4.00
2022-08-03T05:10:43.142Z,4.08
2022-08-03T05:11:40.499Z,3.55
2022-08-03T05:12:38.014Z,3.69
2022-08-03T05:13:35.624Z,3.95
2022-08-03T05:14:33.724Z,4.06
2022-08-03T05:15:31.055Z,3.62
2022-08-03T05:16:28.457Z,3.78
2022-08-03T05:17:25.831Z,3.94
2022-08-03T05:18:23.251Z,3.74
2022-08-03T05:19:20.675Z,3.59
2022-08-03T05:20:19.055Z,3.72
2022-08-03T05:21:17.043Z,3.75
2022-08-03T05:22:14.560Z,4.23
2022-08-03T05:23:12.053Z,3.72
2022-08-03T05:24:09.532Z,3.45
2022-08-03T05:25:07.087Z,3.59
2022-08-03T05:26:04.763Z,4.09
2022-08-03T05:27:02.110Z,4.19
2022-08-03T05:27:59.497Z,4.16
2022-08-03T05:28:56.814Z,3.83
2022-08-03T05:29:54.142Z,3.62
2022-08-03T05:30:51.493Z,3.53
2022-08-03T05:31:48.910Z,4.18
2022-08-03T05:32:46.251Z,4.12
2022-08-03T05:33:44.838Z,4.02
2022-08-03T05:34:42.287Z,4.10
2022-08-03T05:35:55.941Z,4.04
2022-08-03T05:36:57.119Z,3.96
2022-08-03T05:37:55.034Z,3.66
2022-08-03T05:38:52.536Z,3.89
2022-08-03T05:39:49.879Z,3.80
2022-08-03T05:40:56.886Z,3.81
2022-08-03T05:41:55.138Z,3.57
2022-08-03T05:42:52.479Z,3.82
2022-08-03T05:43:50.140Z,4.12
2022-08-03T05:44:47.652Z,4.01
2022-08-03T05:45:45.333Z,4.04
2022-08-03T05:46:42.659Z,3.87
2022-08-03T05:47:40.065Z,3.77
2022-08-03T05:48:37.538Z,3.77
2022-08-03T05:49:34.914Z,3.75
2022-08-03T05:50:32.374Z,3.69
2022-08-03T05:51:29.819Z,3.66
2022-08-03T05:52:27.864Z,3.78
2022-08-03T05:53:26.493Z,3.68
2022-08-03T05:54:23.827Z,3.64
2022-08-03T05:55:41.119Z,3.82
2022-08-03T05:56:41.027Z,3.83
2022-08-03T05:57:38.595Z,3.46
2022-08-03T05:58:35.938Z,3.53
2022-08-03T05:59:38.487Z,3.74
2022-08-03T06:00:36.118Z,3.69
2022-08-03T06:01:33.524Z,3.68
2022-08-03T06:02:31.115Z,3.81
2022-08-03T06:03:28.476Z,3.78
2022-08-03T06:04:25.837Z,3.93
2022-08-03T06:05:23.170Z,4.18
2022-08-03T06:06:20.577Z,4.12
2022-08-03T06:07:18.655Z,4.02
2022-08-03T06:08:15.990Z,3.39
2022-08-03T06:09:13.593Z,3.57
2022-08-03T06:10:36.528Z,4.07
2022-08-03T06:11:28.309Z,3.67
2022-08-03T06:12:25.819Z,3.43
2022-08-03T06:13:23.151Z,3.54
2022-08-03T06:14:20.468Z,4.07
2022-08-03T06:15:18.830Z,3.73
2022-08-03T06:16:16.229Z,3.44
2022-08-03T06:17:13.644Z,3.46
2022-08-03T06:18:12.651Z,3.76
2022-08-03T06:19:09.981Z,3.70
2022-08-03T06:20:07.557Z,3.93
2022-08-03T06:21:14.378Z,3.50
2022-08-03T06:22:13.327Z,3.17
2022-08-03T06:23:16.140Z,3.57
2022-08-03T06:24:15.908Z,3.53
2022-08-03T06:25:13.714Z,3.50
2022-08-03T06:26:13.300Z,3.75
2022-08-03T06:27:12.278Z,3.27
2022-08-03T06:28:19.047Z,3.86
2022-08-03T06:29:21.095Z,4.18
2022-08-03T06:30:21.214Z,3.86
2022-08-03T06:31:18.958Z,3.80
2022-08-03T06:32:16.596Z,4.08
2022-08-03T06:33:15.180Z,3.84
2022-08-03T06:34:32.617Z,4.25
2022-08-03T06:35:29.909Z,4.21
2022-08-03T06:36:31.585Z,4.21
2022-08-03T06:37:29.290Z,3.66
2022-08-03T06:38:26.666Z,3.54
2022-08-03T06:39:24.323Z,3.89
2022-08-03T06:40:29.157Z,3.89
2022-08-03T06:41:27.060Z,4.03
2022-08-03T06:42:24.392Z,4.01
2022-08-03T06:43:22.697Z,4.24
2022-08-03T06:44:20.186Z,4.12
2022-08-03T06:45:17.580Z,3.72
2022-08-03T06:46:14.913Z,3.81
2022-08-03T06:47:12.264Z,3.82
2022-08-03T06:48:12.992Z,4.02
2022-08-03T06:49:10.404Z,3.54
2022-08-03T06:50:16.335Z,3.85
2022-08-03T06:51:14.745Z,3.98
2022-08-03T06:52:12.113Z,3.58
2022-08-03T06:53:29.408Z,3.83
2022-08-03T06:54:26.825Z,3.65
2022-08-03T06:55:24.825Z,3.85
2022-08-03T06:56:22.135Z,4.17
2022-08-03T06:57:19.489Z,4.12
2022-08-03T06:58:16.922Z,4.06
2022-08-03T07:00:11.051Z,3.89
2022-08-03T07:00:31.736Z,4.34
2022-08-03T07:01:29.147Z,4.10
2022-08-03T07:02:28.308Z,4.03
2022-08-03T07:03:25.896Z,4.06
2022-08-03T07:04:23.240Z,4.08
2022-08-03T07:05:20.859Z,3.68
2022-08-03T07:06:18.190Z,4.14
2022-08-03T07:07:15.600Z,4.06
2022-08-03T07:08:13.237Z,3.96
2022-08-03T07:09:10.588Z,4.07
2022-08-03T07:10:08.625Z,4.09
2022-08-03T07:11:05.994Z,4.19
2022-08-03T07:12:04.481Z,4.10
2022-08-03T07:13:01.859Z,4.08
2022-08-03T07:13:59.237Z,4.37
2022-08-03T07:15:01.337Z,3.92
2022-08-03T07:15:59.447Z,4.21
2022-08-03T07:16:56.917Z,4.40
2022-08-03T07:17:54.288Z,4.18
2022-08-03T07:18:51.735Z,4.05
2022-08-03T07:19:49.093Z,3.87
2022-08-03T07:20:46.540Z,3.97
2022-08-03T07:21:44.001Z,3.99
2022-08-03T07:22:41.364Z,4.07
2022-08-03T07:23:38.824Z,4.10
2022-08-03T07:24:36.218Z,4.25
2022-08-03T07:25:33.623Z,3.77
2022-08-03T07:26:30.987Z,3.83
2022-08-03T07:27:29.362Z,4.07
2022-08-03T07:28:26.966Z,4.30
2022-08-03T07:29:24.315Z,3.94
2022-08-03T07:30:21.660Z,3.91
2022-08-03T07:31:19.313Z,3.88
2022-08-03T07:32:16.987Z,3.62
2022-08-03T07:33:15.345Z,3.85
2022-08-03T07:34:12.905Z,3.98
2022-08-03T07:35:24.795Z,3.97
2022-08-03T07:36:23.129Z,3.73
2022-08-03T07:37:20.547Z,4.03
2022-08-03T07:38:20.877Z,4.22
2022-08-03T07:39:18.712Z,4.28
2022-08-03T07:40:17.747Z,3.99
2022-08-03T07:41:15.064Z,3.84
2022-08-03T07:42:12.663Z,3.66
2022-08-03T07:43:10.276Z,3.75
2022-08-03T07:44:07.678Z,3.72
2022-08-03T07:45:05.251Z,3.87
2022-08-03T07:46:02.644Z,3.44
2022-08-03T07:47:00.080Z,3.90
2022-08-03T07:48:00.779Z,3.62
2022-08-03T07:48:58.309Z,3.78
2022-08-03T07:49:56.082Z,3.53
2022-08-03T07:50:53.487Z,3.66
2022-08-03T07:52:10.858Z,3.74
2022-08-03T07:53:08.781Z,3.75
2022-08-03T07:54:06.172Z,3.49
2022-08-03T07:55:06.444Z,3.82
2022-08-03T07:56:03.902Z,3.97
2022-08-03T07:57:08.568Z,3.91
2022-08-03T07:58:09.341Z,3.53
2022-08-03T07:59:06.690Z,3.73
2022-08-03T08:00:06.396Z,3.96
2022-08-03T08:01:04.075Z,3.74
2022-08-03T08:02:01.533Z,3.81
2022-08-03T08:02:58.968Z,3.52
2022-08-03T08:03:56.318Z,3.34
2022-08-03T08:04:53.741Z,3.73
2022-08-03T08:05:51.088Z,3.71
2022-08-03T08:06:48.517Z,3.66
2022-08-03T08:07:51.021Z,3.66
2022-08-03T08:08:49.242Z,3.59
2022-08-03T08:09:47.210Z,3.84
2022-08-03T08:10:57.617Z,3.39
2022-08-03T08:11:56.134Z,3.62
2022-08-03T08:12:53.551Z,3.59
2022-08-03T08:13:50.909Z,3.30
2022-08-03T08:14:48.308Z,3.21
2022-08-03T08:15:45.687Z,3.43
2022-08-03T08:16:44.572Z,3.54
2022-08-03T08:17:43.493Z,3.62
2022-08-03T08:18:40.837Z,3.39
2022-08-03T08:19:39.352Z,3.25
2022-08-03T08:20:48.874Z,3.29
2022-08-03T08:21:52.972Z,3.26
2022-08-03T08:22:51.442Z,3.29
2022-08-03T08:23:54.931Z,3.29
2022-08-03T08:24:54.547Z,3.11
2022-08-03T08:25:53.387Z,3.40
2022-08-03T08:26:50.860Z,3.04
2022-08-03T08:28:29.460Z,3.48
2022-08-03T08:29:06.955Z,2.98
2022-08-03T08:30:10.438Z,3.05
2022-08-03T08:31:09.019Z,2.97
2022-08-03T08:32:06.512Z,2.86
2022-08-03T08:33:03.854Z,2.75
2022-08-03T08:34:05.614Z,3.27
2022-08-03T08:35:03.659Z,3.16
2022-08-03T08:36:00.984Z,2.74
2022-08-03T08:36:58.909Z,2.84
2022-08-03T08:37:56.332Z,3.02
2022-08-03T08:38:55.245Z,2.77
2022-08-03T08:39:52.573Z,2.65
2022-08-03T08:40:50.545Z,3.01
2022-08-03T08:41:53.400Z,2.74
2022-08-03T08:42:59.202Z,2.72
2022-08-03T08:44:00.015Z,2.98
2022-08-03T08:44:58.298Z,3.23
2022-08-03T08:45:58.896Z,2.69
2022-08-03T08:46:57.969Z,2.71
2022-08-03T08:48:00.374Z,3.01
2022-08-03T08:48:59.882Z,2.65
2022-08-03T08:50:10.123Z,3.17
2022-08-03T08:51:19.563Z,2.94
2022-08-03T08:52:24.943Z,3.03
2022-08-03T08:53:27.622Z,2.96
2022-08-03T08:54:26.123Z,3.04
2022-08-03T08:55:23.793Z,3.38
2022-08-03T08:56:25.435Z,3.20
2022-08-03T08:57:41.829Z,3.21
2022-08-03T08:58:44.508Z,3.32
2022-08-03T08:59:48.852Z,3.30
2022-08-03T09:00:48.547Z,3.01
2022-08-03T09:01:46.200Z,2.99
2022-08-03T09:02:44.825Z,3.19
2022-08-03T09:03:42.511Z,3.14
2022-08-03T09:04:40.578Z,3.18
2022-08-03T09:05:55.325Z,3.02
2022-08-03T09:07:17.568Z,3.31
2022-08-03T09:08:10.585Z,2.79
2022-08-03T09:09:08.432Z,2.94
2022-08-03T09:10:12.668Z,2.26
2022-08-03T09:11:12.043Z,2.61
2022-08-03T09:12:37.517Z,2.94
2022-08-03T09:13:27.358Z,2.90
2022-08-03T09:14:36.798Z,2.92
2022-08-03T09:15:39.140Z,3.12
2022-08-03T09:16:36.921Z,2.88
2022-08-03T09:17:41.281Z,2.94
2022-08-03T09:18:38.765Z,3.11
2022-08-03T09:19:36.321Z,2.84
2022-08-03T09:20:35.165Z,3.04
2022-08-03T09:21:34.001Z,3.22
2022-08-03T09:22:33.444Z,2.83
2022-08-03T09:23:51.802Z,3.11
2022-08-03T09:25:23.206Z,3.24
2022-08-03T09:26:24.505Z,2.70
2022-08-03T09:27:22.515Z,2.72
2022-08-03T09:28:57.985Z,2.69
2022-08-03T09:29:37.120Z,3.08
2022-08-03T09:30:35.294Z,3.25
2022-08-03T09:31:32.932Z,2.75
2022-08-03T09:32:30.350Z,2.74
2022-08-03T09:33:35.978Z,2.96
2022-08-03T09:34:33.661Z,2.70
2022-08-03T09:36:49.987Z,3.06
2022-08-03T09:38:12.517Z,3.14
2022-08-03T09:39:12.683Z,2.99
2022-08-03T09:40:10.280Z,2.75
2022-08-03T09:41:17.886Z,2.93
2022-08-03T09:42:19.132Z,3.05
2022-08-03T09:43:22.066Z,2.53
2022-08-03T09:44:33.709Z,2.95
2022-08-03T09:45:31.081Z,2.87
2022-08-03T09:46:31.967Z,2.89
2022-08-03T09:47:34.027Z,3.20
2022-08-03T09:48:32.568Z,2.81
2022-08-03T09:49:29.935Z,3.06
2022-08-03T09:50:27.381Z,2.89
2022-08-03T09:51:32.570Z,3.08
2022-08-03T09:52:52.370Z,3.01
2022-08-03T09:53:58.885Z,3.10
2022-08-03T09:54:57.592Z,3.17
2022-08-03T09:56:32.706Z,2.84
2022-08-03T09:57:22.164Z,3.21
2022-08-03T09:58:21.532Z,2.89
2022-08-03T09:59:26.891Z,3.00
2022-08-03T10:00:24.925Z,2.79
2022-08-03T10:01:32.794Z,2.98
2022-08-03T10:02:30.318Z,2.75
2022-08-03T10:03:29.059Z,3.10
2022-08-03T10:04:26.796Z,3.12
2022-08-03T10:05:33.063Z,3.18
2022-08-03T10:06:30.451Z,2.77
2022-08-03T10:07:28.243Z,3.00
2022-08-03T10:08:25.803Z,3.06
2022-08-03T10:09:23.155Z,2.78
2022-08-03T10:10:29.117Z,3.07
2022-08-03T10:11:30.291Z,3.34
2022-08-03T10:12:28.927Z,3.15
2022-08-03T10:13:27.182Z,2.82
2022-08-03T10:14:26.534Z,2.98
2022-08-03T10:16:21.601Z,3.14
2022-08-03T10:16:41.528Z,2.89
2022-08-03T10:17:40.378Z,2.77
2022-08-03T10:18:37.881Z,2.84
2022-08-03T10:19:35.221Z,2.92
2022-08-03T10:20:36.771Z,3.10
2022-08-03T10:21:35.290Z,3.02
2022-08-03T10:22:34.401Z,3.23
2022-08-03T10:23:35.801Z,3.07
2022-08-03T10:24:35.901Z,3.13
2022-08-03T10:25:34.374Z,3.06
2022-08-03T10:26:34.143Z,3.15
2022-08-03T10:27:34.102Z,2.96
2022-08-03T10:28:45.453Z,2.71
2022-08-03T10:29:45.931Z,3.32
2022-08-03T10:30:45.618Z,3.08
2022-08-03T10:31:55.894Z,3.11
2022-08-03T10:33:01.317Z,2.98
2022-08-03T10:34:02.142Z,3.12
2022-08-03T10:35:21.112Z,3.13
2022-08-03T10:36:21.084Z,2.98
2022-08-03T10:37:19.420Z,2.96
2022-08-03T10:38:20.174Z,2.95
2022-08-03T10:39:19.771Z,3.00
2022-08-03T10:40:39.540Z,3.21
2022-08-03T10:41:40.827Z,3.05
2022-08-03T10:42:38.816Z,3.17
2022-08-03T10:43:45.882Z,2.70
2022-08-03T10:44:43.440Z,3.20
2022-08-03T10:45:42.075Z,2.91
2022-08-03T10:46:44.800Z,3.10
2022-08-03T10:47:42.895Z,2.99
2022-08-03T10:48:40.618Z,3.05
2022-08-03T10:49:38.729Z,2.94
2022-08-03T10:50:36.684Z,2.76
2022-08-03T10:51:34.841Z,2.91
2022-08-03T10:52:36.068Z,2.51
2022-08-03T10:53:40.499Z,2.67
2022-08-03T10:55:09.889Z,2.92
2022-08-03T10:56:49.841Z,2.92
2022-08-03T10:57:49.669Z,2.96
2022-08-03T10:58:53.232Z,3.21
2022-08-03T10:59:54.630Z,3.35
2022-08-03T11:00:52.502Z,3.06
2022-08-03T11:01:59.117Z,2.66
2022-08-03T11:03:08.939Z,2.68
2022-08-03T11:04:10.984Z,3.26
2022-08-03T11:05:27.301Z,2.98
2022-08-03T11:06:26.311Z,3.02
2022-08-03T11:07:24.804Z,3.14
2022-08-03T11:08:23.947Z,3.08
2022-08-03T11:09:21.370Z,2.75
2022-08-03T11:10:31.956Z,2.99
2022-08-03T11:11:29.438Z,3.49
2022-08-03T11:12:32.311Z,3.15
2022-08-03T11:13:33.518Z,3.39
2022-08-03T11:14:46.193Z,3.21
2022-08-03T11:15:46.717Z,3.32
2022-08-03T11:16:46.796Z,3.03
2022-08-03T11:18:04.084Z,2.92
2022-08-03T11:19:06.830Z,3.27
2022-08-03T11:20:06.299Z,3.16
2022-08-03T11:21:03.923Z,3.16
2022-08-03T11:22:01.512Z,3.36
2022-08-03T11:23:01.066Z,3.26
2022-08-03T11:24:04.889Z,3.23
2022-08-03T11:25:04.628Z,3.40
2022-08-03T11:26:22.646Z,3.40
2022-08-03T11:27:27.478Z,3.29
2022-08-03T11:28:26.541Z,3.47
2022-08-03T11:29:31.022Z,3.21
2022-08-03T11:30:29.827Z,3.33
2022-08-03T11:31:48.557Z,3.38
2022-08-03T11:32:48.119Z,3.42
2022-08-03T11:34:04.123Z,3.52
2022-08-03T11:35:07.450Z,3.21
2022-08-03T11:36:04.832Z,3.35
2022-08-03T11:37:22.677Z,3.35
2022-08-03T11:38:24.618Z,3.70
2022-08-03T11:39:21.979Z,3.39
2022-08-03T11:40:34.680Z,3.12
2022-08-03T11:41:43.375Z,3.49
2022-08-03T11:42:45.225Z,3.48
2022-08-03T11:43:45.980Z,3.82
2022-08-03T11:44:47.646Z,3.57
2022-08-03T11:45:57.088Z,3.39
2022-08-03T11:46:54.593Z,3.64
2022-08-03T11:47:55.548Z,3.45
2022-08-03T11:48:53.367Z,3.72
2022-08-03T11:49:53.948Z,3.65
2022-08-03T11:50:51.328Z,3.49
2022-08-03T11:51:53.523Z,3.51
2022-08-03T11:52:51.379Z,3.84
2022-08-03T11:53:59.266Z,3.87
2022-08-03T11:54:57.514Z,3.81
2022-08-03T11:55:58.814Z,3.44
2022-08-03T11:56:56.236Z,3.76
2022-08-03T11:59:10.743Z,3.63
2022-08-03T11:59:22.357Z,3.92
2022-08-03T12:00:20.745Z,3.47
2022-08-03T12:01:22.877Z,3.37
2022-08-03T12:02:20.561Z,3.17
2022-08-03T12:03:19.548Z,3.67
2022-08-03T12:04:17.070Z,3.62
2022-08-03T12:05:14.419Z,3.62
2022-08-03T12:06:13.059Z,3.81
2022-08-03T12:07:10.698Z,3.77
2022-08-03T12:08:27.872Z,3.45
2022-08-03T12:09:25.267Z,3.76
2022-08-03T12:10:23.732Z,3.62
2022-08-03T12:11:21.091Z,3.49
2022-08-03T12:12:18.539Z,3.33
2022-08-03T12:14:36.707Z,3.63
2022-08-03T12:14:51.064Z,3.62
2022-08-03T12:15:57.301Z,3.68
2022-08-03T12:16:54.727Z,3.89
2022-08-03T12:17:56.052Z,3.73
2022-08-03T12:18:59.337Z,3.95
2022-08-03T12:19:56.701Z,3.83
2022-08-03T12:21:03.829Z,3.99
2022-08-03T12:22:01.420Z,3.87
2022-08-03T12:23:05.813Z,3.65
2022-08-03T12:24:04.745Z,3.75
2022-08-03T12:25:02.135Z,3.81
2022-08-03T12:26:04.017Z,3.58
2022-08-03T12:27:01.402Z,3.60
2022-08-03T12:28:37.103Z,3.99
2022-08-03T12:29:29.682Z,3.97
2022-08-03T12:30:27.745Z,3.66
2022-08-03T12:31:25.373Z,3.64
2022-08-03T12:32:22.782Z,3.83
2022-08-03T12:33:27.487Z,3.78
2022-08-03T12:34:47.238Z,3.86
2022-08-03T12:35:52.481Z,3.87
2022-08-03T12:36:52.436Z,3.93
2022-08-03T12:37:50.081Z,3.64
2022-08-03T12:38:54.982Z,4.18
2022-08-03T12:40:02.854Z,3.87
2022-08-03T12:41:08.626Z,3.65
2022-08-03T12:42:06.097Z,3.90
2022-08-03T12:43:11.057Z,3.86
2022-08-03T12:44:09.629Z,3.66
2022-08-03T12:45:23.124Z,3.74
2022-08-03T12:46:21.059Z,3.84
2022-08-03T12:47:18.512Z,3.89
2022-08-03T12:48:15.987Z,4.01
2022-08-03T12:49:18.754Z,4.00
2022-08-03T12:50:45.326Z,3.82
2022-08-03T12:51:50.901Z,3.81
2022-08-03T12:52:48.953Z,4.02
2022-08-03T12:53:52.533Z,4.18
2022-08-03T12:54:56.791Z,3.97
2022-08-03T12:56:05.751Z,3.66
2022-08-03T12:57:03.525Z,4.16
2022-08-03T12:58:02.046Z,3.80
2022-08-03T12:58:59.392Z,4.06
2022-08-03T13:00:21.439Z,3.77
2022-08-03T13:01:27.992Z,3.71
2022-08-03T13:02:26.526Z,3.88
2022-08-03T13:03:39.344Z,4.02
2022-08-03T13:04:39.440Z,4.02
2022-08-03T13:05:46.698Z,3.75
2022-08-03T13:06:44.622Z,3.77
2022-08-03T13:07:46.157Z,3.70
2022-08-03T13:08:44.413Z,3.76
2022-08-03T13:09:55.681Z,3.67
2022-08-03T13:10:53.097Z,3.55
2022-08-03T13:12:04.438Z,3.69
2022-08-03T13:13:06.686Z,3.59
2022-08-03T13:14:04.122Z,3.79
2022-08-03T13:15:02.015Z,3.70
2022-08-03T13:15:59.365Z,3.52
2022-08-03T13:16:56.819Z,3.65
2022-08-03T13:17:55.545Z,3.66
2022-08-03T13:18:53.912Z,3.84
2022-08-03T13:19:52.098Z,4.11
2022-08-03T13:20:49.466Z,3.68
2022-08-03T13:22:01.659Z,3.69
2022-08-03T13:23:02.062Z,3.83
2022-08-03T13:23:59.950Z,3.70
2022-08-03T13:24:57.746Z,3.76
2022-08-03T13:25:56.214Z,3.85
2022-08-03T13:26:53.695Z,3.60
2022-08-03T13:28:03.619Z,3.74
2022-08-03T13:29:03.027Z,3.99
2022-08-03T13:30:00.420Z,3.26
2022-08-03T13:30:57.893Z,3.44
2022-08-03T13:31:55.252Z,3.96
2022-08-03T13:32:52.613Z,3.81
2022-08-03T13:33:49.988Z,3.79
2022-08-03T13:34:47.726Z,3.22
2022-08-03T13:35:45.190Z,3.48
2022-08-03T13:37:07.369Z,3.40